Terminal Aerodrome Forecast
Issued by NWS Pocatello, ID

Home | Current Version | Previous Version | Text Only | Print | Product List | Glossary On
Versions: 1 2 3 4 5 6 7 8 9 10 11 12 13 14 15 16 17 18 19 20 21 22 23 24 25 26 27 28 29 30 31 32 33 34
841
FTUS45 KPIH 100523
TAFIDA
TAF
KIDA 100523Z 1006/1106 VRB03KT 1/4SM FZFG OVC002
     FM102000 36005KT 3SM BR SCT002 BKN005
     FM102100 36006KT P6SM SCT005 BKN120
     FM110300 VRB03KT 1/4SM FZFG VV002=

USA.gov is the U.S. government's official web portal to all federal, state and local government web resources and services.